createdAt,value
2018-06-08T00:00:48.409Z,23.03
2018-06-08T00:03:53.420Z,20.97
2018-06-08T00:06:59.466Z,19.03
2018-06-08T00:10:03.292Z,19.27
2018-06-08T00:13:06.637Z,22.77
2018-06-08T00:16:09.985Z,18.07
2018-06-08T00:19:14.921Z,17.87
2018-06-08T00:22:18.368Z,22.60
2018-06-08T00:25:23.566Z,17.07
2018-06-08T00:28:29.500Z,21.50
2018-06-08T00:31:32.573Z,16.17
2018-06-08T00:34:35.477Z,27.83
2018-06-08T00:37:38.432Z,17.40
2018-06-08T00:40:41.671Z,31.53
2018-06-08T00:43:44.620Z,17.60
2018-06-08T00:46:47.532Z,19.83
2018-06-08T00:49:50.460Z,20.00
2018-06-08T00:52:53.435Z,18.30
2018-06-08T00:55:56.433Z,18.63
2018-06-08T00:58:59.344Z,22.27
2018-06-08T01:02:02.323Z,33.00
2018-06-08T01:05:05.349Z,21.80
2018-06-08T01:08:08.344Z,18.60
2018-06-08T01:11:11.324Z,19.47
2018-06-08T01:14:14.250Z,18.53
2018-06-08T01:17:17.212Z,20.07
2018-06-08T01:20:20.106Z,21.93
2018-06-08T01:23:23.039Z,21.57
2018-06-08T01:26:25.978Z,26.93
2018-06-08T01:29:28.898Z,24.90
2018-06-08T01:32:31.791Z,26.53
2018-06-08T01:35:34.713Z,26.10
2018-06-08T01:38:37.673Z,29.73
2018-06-08T01:41:40.619Z,27.80
2018-06-08T01:44:43.573Z,29.40
2018-06-08T01:47:46.497Z,28.70
2018-06-08T01:50:49.438Z,29.43
2018-06-08T01:53:52.338Z,27.87
2018-06-08T01:56:55.252Z,30.33
2018-06-08T01:59:58.149Z,32.50
2018-06-08T02:03:01.097Z,34.93
2018-06-08T02:06:04.110Z,27.70
2018-06-08T02:09:07.614Z,26.73
2018-06-08T02:12:10.552Z,39.00
2018-06-08T02:15:13.486Z,40.03
2018-06-08T02:18:16.370Z,32.47
2018-06-08T02:21:19.290Z,31.30
2018-06-08T02:24:22.204Z,31.00
2018-06-08T02:27:25.153Z,33.53
2018-06-08T02:30:28.053Z,37.77
2018-06-08T02:33:30.957Z,39.50
2018-06-08T02:36:33.846Z,30.30
2018-06-08T02:39:36.780Z,34.33
2018-06-08T02:42:39.685Z,32.43
2018-06-08T02:45:42.658Z,39.27
2018-06-08T02:48:45.585Z,32.37
2018-06-08T02:51:48.547Z,29.60
2018-06-08T02:54:51.501Z,34.13
2018-06-08T02:57:54.429Z,33.30
2018-06-08T03:00:57.334Z,33.80
2018-06-08T03:04:00.280Z,36.47
2018-06-08T03:07:03.222Z,43.23
2018-06-08T03:10:06.173Z,35.27
2018-06-08T03:13:09.084Z,41.90
2018-06-08T03:16:12.012Z,46.80
2018-06-08T03:19:14.894Z,42.23
2018-06-08T03:22:17.809Z,56.47
2018-06-08T03:25:20.757Z,51.57
2018-06-08T03:28:23.701Z,51.87
2018-06-08T03:31:26.639Z,63.17
2018-06-08T03:34:29.581Z,60.97
2018-06-08T03:37:32.526Z,65.13
2018-06-08T03:40:35.442Z,67.20
2018-06-08T03:43:38.380Z,57.47
2018-06-08T03:46:41.302Z,66.73
2018-06-08T03:49:44.226Z,66.50
2018-06-08T03:52:47.141Z,70.90
2018-06-08T03:55:50.060Z,73.97
2018-06-08T03:58:52.962Z,69.80
2018-06-08T04:01:55.912Z,73.40
2018-06-08T04:04:59.130Z,73.87
2018-06-08T04:08:02.555Z,77.57
2018-06-08T04:11:06.301Z,85.37
2018-06-08T04:14:10.479Z,80.37
2018-06-08T04:17:14.153Z,82.77
2018-06-08T04:20:17.353Z,79.93
2018-06-08T04:23:20.818Z,76.10
2018-06-08T04:26:23.722Z,82.93
2018-06-08T04:29:26.635Z,74.80
2018-06-08T04:32:29.701Z,91.00
2018-06-08T04:35:32.632Z,84.63
2018-06-08T04:38:35.801Z,76.47
2018-06-08T04:41:39.221Z,82.60
2018-06-08T04:44:43.572Z,83.03
2018-06-08T04:47:47.082Z,89.23
2018-06-08T04:50:51.733Z,93.20
2018-06-08T04:53:54.666Z,90.67
2018-06-08T04:56:57.689Z,108.33
2018-06-08T05:00:00.799Z,94.73
2018-06-08T05:03:03.748Z,90.07
2018-06-08T05:06:06.690Z,101.50
2018-06-08T05:09:10.607Z,89.07
2018-06-08T05:12:13.538Z,88.80
2018-06-08T05:15:16.457Z,100.80
2018-06-08T05:18:19.397Z,82.23
2018-06-08T05:21:22.657Z,90.57
2018-06-08T05:24:25.573Z,87.63
2018-06-08T05:27:28.484Z,91.07
2018-06-08T05:30:31.444Z,89.83
2018-06-08T05:33:34.376Z,98.43
2018-06-08T05:36:37.804Z,98.63
2018-06-08T05:39:40.744Z,91.27
2018-06-08T05:42:43.653Z,98.27
2018-06-08T05:45:46.542Z,89.00
2018-06-08T05:48:49.467Z,95.53
2018-06-08T05:51:52.409Z,92.43
2018-06-08T05:54:55.340Z,91.33
2018-06-08T05:57:58.282Z,93.73
2018-06-08T06:01:01.436Z,82.83
2018-06-08T06:04:04.322Z,94.90
2018-06-08T06:07:07.191Z,86.93
2018-06-08T06:10:10.802Z,100.10
2018-06-08T06:13:13.732Z,89.63
2018-06-08T06:16:16.712Z,88.13
2018-06-08T06:19:19.696Z,82.67
2018-06-08T06:22:22.657Z,95.47
2018-06-08T06:25:25.618Z,91.77
2018-06-08T06:28:28.545Z,74.93
2018-06-08T06:31:31.452Z,84.73
2018-06-08T06:34:34.356Z,79.80
2018-06-08T06:37:37.279Z,77.77
2018-06-08T06:40:40.218Z,72.93
2018-06-08T06:43:43.224Z,221.20
2018-06-08T06:46:46.165Z,84.87
2018-06-08T06:49:49.085Z,77.97
2018-06-08T06:52:52.058Z,65.93
2018-06-08T06:55:54.966Z,77.63
2018-06-08T06:58:57.849Z,68.80
2018-06-08T07:02:00.767Z,67.43
2018-06-08T07:05:03.791Z,65.47
2018-06-08T07:08:07.044Z,58.70
2018-06-08T07:11:09.978Z,56.63
2018-06-08T07:14:12.925Z,50.03
2018-06-08T07:17:15.840Z,54.40
2018-06-08T07:20:18.799Z,51.20
2018-06-08T07:23:21.747Z,47.37
2018-06-08T07:26:25.597Z,59.90
2018-06-08T07:29:28.504Z,54.80
2018-06-08T07:32:31.429Z,55.90
2018-06-08T07:35:34.379Z,45.50
2018-06-08T07:38:37.309Z,44.00
2018-06-08T07:41:40.288Z,41.33
2018-06-08T07:44:43.213Z,41.97
2018-06-08T07:47:46.148Z,44.70
2018-06-08T07:50:49.095Z,49.03
2018-06-08T07:53:52.129Z,41.47
2018-06-08T07:56:55.063Z,44.60
2018-06-08T07:59:57.986Z,47.97
2018-06-08T08:03:00.890Z,54.20
2018-06-08T08:06:03.937Z,59.70
2018-06-08T08:09:09.225Z,70.23
2018-06-08T08:12:12.125Z,49.93
2018-06-08T08:15:15.041Z,60.70
2018-06-08T08:18:17.980Z,56.50
2018-06-08T08:21:21.096Z,51.73
2018-06-08T08:24:24.002Z,54.00
2018-06-08T08:27:26.898Z,58.13
2018-06-08T08:30:29.826Z,59.10
2018-06-08T08:33:32.720Z,59.17
2018-06-08T08:36:35.671Z,67.53
2018-06-08T08:39:38.580Z,63.90
2018-06-08T08:42:41.500Z,69.67
2018-06-08T08:45:44.408Z,61.83
2018-06-08T08:48:47.294Z,52.13
2018-06-08T08:51:50.250Z,63.20
2018-06-08T08:54:53.148Z,53.70
2018-06-08T08:57:56.072Z,55.60
2018-06-08T09:00:58.969Z,56.03
2018-06-08T09:04:01.903Z,62.70
2018-06-08T09:07:04.857Z,59.37
2018-06-08T09:10:07.807Z,56.50
2018-06-08T09:13:10.712Z,59.23
2018-06-08T09:16:13.673Z,61.70
2018-06-08T09:19:16.588Z,59.97
2018-06-08T09:22:19.488Z,66.20
2018-06-08T09:25:22.385Z,50.63
2018-06-08T09:28:26.075Z,54.93
2018-06-08T09:31:28.983Z,53.77
2018-06-08T09:34:31.936Z,51.60
2018-06-08T09:37:34.833Z,51.60
2018-06-08T09:40:37.773Z,61.27
2018-06-08T09:43:40.701Z,62.97
2018-06-08T09:46:43.599Z,66.33
2018-06-08T09:49:46.520Z,51.67
2018-06-08T09:52:49.436Z,54.40
2018-06-08T09:55:52.360Z,55.77
2018-06-08T09:58:55.303Z,54.97
2018-06-08T10:01:58.209Z,60.60
2018-06-08T10:05:02.319Z,60.77
2018-06-08T10:08:06.972Z,54.10
2018-06-08T10:11:10.597Z,64.93
2018-06-08T10:14:13.901Z,54.60
2018-06-08T10:17:16.929Z,61.67
2018-06-08T10:20:20.205Z,52.67
2018-06-08T10:23:23.257Z,57.17
2018-06-08T10:26:26.465Z,47.73
2018-06-08T10:29:29.637Z,54.10
2018-06-08T10:32:32.597Z,51.43
2018-06-08T10:35:36.266Z,51.60
2018-06-08T10:38:39.762Z,49.70
2018-06-08T10:41:44.494Z,50.07
2018-06-08T10:44:47.839Z,50.73
2018-06-08T10:47:51.352Z,55.33
2018-06-08T10:50:54.455Z,59.23
2018-06-08T10:53:58.293Z,61.10
2018-06-08T10:57:01.273Z,64.43
2018-06-08T11:00:04.845Z,57.50
2018-06-08T11:03:08.532Z,62.67
2018-06-08T11:06:12.105Z,64.80
2018-06-08T11:09:15.437Z,72.37
2018-06-08T11:12:18.546Z,65.23
2018-06-08T11:15:22.396Z,63.13
2018-06-08T11:18:25.615Z,73.37
2018-06-08T11:21:28.757Z,69.90
2018-06-08T11:24:31.741Z,67.23
2018-06-08T11:27:34.637Z,70.60
2018-06-08T11:30:37.590Z,77.77
2018-06-08T11:33:41.448Z,72.00
2018-06-08T11:36:44.948Z,72.80
2018-06-08T11:39:47.884Z,68.97
2018-06-08T11:42:51.198Z,77.10
2018-06-08T11:45:54.772Z,81.23
2018-06-08T11:48:57.658Z,67.03
2018-06-08T11:52:00.954Z,73.30
2018-06-08T11:55:04.704Z,71.27
2018-06-08T11:58:08.630Z,69.33
2018-06-08T12:01:11.776Z,67.57
2018-06-08T12:04:15.344Z,69.00
2018-06-08T12:07:19.193Z,62.43
2018-06-08T12:10:22.725Z,57.60
2018-06-08T12:13:26.037Z,66.03
2018-06-08T12:16:29.941Z,70.40
2018-06-08T12:19:34.093Z,61.50
2018-06-08T12:22:37.016Z,58.93
2018-06-08T12:25:40.274Z,59.27
2018-06-08T12:28:44.586Z,57.17
2018-06-08T12:31:47.679Z,62.60
2018-06-08T12:34:50.610Z,59.70
2018-06-08T12:37:54.433Z,59.30
2018-06-08T12:40:58.307Z,60.13
2018-06-08T12:44:01.490Z,58.30
2018-06-08T12:47:05.112Z,58.27
2018-06-08T12:50:08.378Z,53.87
2018-06-08T12:53:11.274Z,50.90
2018-06-08T12:56:15.042Z,48.73
2018-06-08T12:59:18.158Z,53.57
2018-06-08T13:02:21.470Z,49.40
2018-06-08T13:05:24.846Z,60.77
2018-06-08T13:08:28.475Z,51.83
2018-06-08T13:11:32.902Z,48.80
2018-06-08T13:14:35.832Z,60.53
2018-06-08T13:17:39.584Z,52.47
2018-06-08T13:20:42.949Z,52.00
2018-06-08T13:23:45.879Z,44.73
2018-06-08T13:26:49.283Z,49.27
2018-06-08T13:29:52.368Z,51.67
2018-06-08T13:32:55.412Z,49.27
2018-06-08T13:35:59.355Z,41.10
2018-06-08T13:39:04.497Z,45.03
2018-06-08T13:42:08.299Z,40.97
2018-06-08T13:45:11.702Z,40.53
2018-06-08T13:48:14.573Z,31.87
2018-06-08T13:51:17.961Z,29.40
2018-06-08T13:54:21.488Z,58.10
2018-06-08T13:57:25.605Z,48.70
2018-06-08T14:00:29.453Z,27.07
2018-06-08T14:03:32.587Z,33.97
2018-06-08T14:06:37.961Z,32.80
2018-06-08T14:09:41.485Z,23.10
2018-06-08T14:12:45.349Z,37.07
2018-06-08T14:15:50.301Z,33.67
2018-06-08T14:18:54.030Z,30.33
2018-06-08T14:21:57.673Z,33.40
2018-06-08T14:25:01.428Z,33.57
2018-06-08T14:28:04.577Z,42.67
2018-06-08T14:31:07.861Z,37.27
2018-06-08T14:34:10.837Z,33.10
2018-06-08T14:37:14.763Z,35.20
2018-06-08T14:40:18.562Z,30.00
2018-06-08T14:43:21.503Z,35.53
2018-06-08T14:46:25.280Z,36.13
2018-06-08T14:49:28.854Z,26.87
2018-06-08T14:52:32.540Z,29.97
2018-06-08T14:55:36.844Z,30.27
2018-06-08T14:58:39.790Z,34.70
2018-06-08T15:01:43.182Z,34.27
2018-06-08T15:04:46.106Z,38.13
2018-06-08T15:07:49.098Z,52.00
2018-06-08T15:10:52.033Z,54.10
2018-06-08T15:13:54.910Z,43.33
2018-06-08T15:16:58.553Z,44.57
2018-06-08T15:20:01.482Z,50.27
2018-06-08T15:23:05.008Z,45.47
2018-06-08T15:26:07.931Z,50.00
2018-06-08T15:29:10.948Z,43.73
2018-06-08T15:32:13.898Z,40.53
2018-06-08T15:35:16.832Z,45.77
2018-06-08T15:38:20.117Z,48.67
2018-06-08T15:41:23.014Z,42.00
2018-06-08T15:44:25.974Z,42.87
2018-06-08T15:47:29.125Z,44.67
2018-06-08T15:50:32.091Z,49.63
2018-06-08T15:53:35.476Z,45.10
2018-06-08T15:56:38.399Z,42.97
2018-06-08T15:59:41.393Z,40.60
2018-06-08T16:02:44.332Z,45.27
2018-06-08T16:05:47.221Z,42.97
2018-06-08T16:08:50.109Z,39.93
2018-06-08T16:11:56.066Z,45.30
2018-06-08T16:14:59.219Z,46.27
2018-06-08T16:18:02.117Z,45.20
2018-06-08T16:21:05.361Z,49.97
2018-06-08T16:24:08.265Z,41.80
2018-06-08T16:27:11.177Z,47.00
2018-06-08T16:30:14.089Z,50.80
2018-06-08T16:33:17.009Z,47.80
2018-06-08T16:36:19.992Z,41.30
2018-06-08T16:39:22.821Z,57.03
2018-06-08T16:42:25.681Z,45.77
2018-06-08T16:45:28.594Z,43.23
2018-06-08T16:48:31.474Z,52.80
2018-06-08T16:51:34.743Z,49.40
2018-06-08T16:54:37.660Z,46.73
2018-06-08T16:57:40.580Z,46.50
2018-06-08T17:00:44.349Z,49.67
2018-06-08T17:03:47.326Z,44.80
2018-06-08T17:06:50.583Z,47.90
2018-06-08T17:09:53.465Z,46.13
2018-06-08T17:12:56.406Z,58.47
2018-06-08T17:15:59.324Z,52.10
2018-06-08T17:19:02.229Z,64.70
2018-06-08T17:22:05.185Z,61.37
2018-06-08T17:25:08.112Z,58.13
2018-06-08T17:28:11.003Z,48.23
2018-06-08T17:31:14.348Z,55.57
2018-06-08T17:34:18.418Z,57.13
2018-06-08T17:37:21.667Z,52.60
2018-06-08T17:40:25.849Z,47.60
2018-06-08T17:43:29.440Z,56.23
2018-06-08T17:46:32.774Z,52.23
2018-06-08T17:49:37.241Z,53.57
2018-06-08T17:52:40.350Z,51.90
2018-06-08T17:55:43.909Z,45.20
2018-06-08T17:58:47.579Z,49.93
2018-06-08T18:01:50.784Z,42.60
2018-06-08T18:04:54.434Z,46.77
2018-06-08T18:07:58.613Z,48.60
2018-06-08T18:11:02.502Z,50.87
2018-06-08T18:14:06.128Z,47.37
2018-06-08T18:17:09.269Z,45.60
2018-06-08T18:20:12.231Z,50.60
2018-06-08T18:23:15.465Z,46.40
2018-06-08T18:26:18.523Z,48.17
2018-06-08T18:29:21.717Z,44.37
2018-06-08T18:32:25.056Z,46.37
2018-06-08T18:35:28.216Z,47.37
2018-06-08T18:38:31.821Z,52.13
2018-06-08T18:41:35.453Z,44.20
2018-06-08T18:44:39.251Z,52.93
2018-06-08T18:47:42.254Z,50.03
2018-06-08T18:50:46.620Z,37.07
2018-06-08T18:53:50.006Z,42.17
2018-06-08T18:56:52.989Z,51.43
2018-06-08T18:59:56.069Z,43.47
2018-06-08T19:02:59.577Z,44.33
2018-06-08T19:06:02.905Z,48.87
2018-06-08T19:09:08.997Z,37.33
2018-06-08T19:12:12.665Z,47.43
2018-06-08T19:15:15.612Z,41.30
2018-06-08T19:18:18.873Z,36.47
2018-06-08T19:21:22.509Z,45.37
2018-06-08T19:24:25.923Z,38.93
2018-06-08T19:27:29.265Z,40.50
2018-06-08T19:30:32.537Z,35.97
2018-06-08T19:33:35.716Z,40.70
2018-06-08T19:36:45.354Z,42.00
2018-06-08T19:39:48.322Z,39.90
2018-06-08T19:42:51.463Z,43.70
2018-06-08T19:45:54.879Z,43.70
2018-06-08T19:48:58.368Z,38.60
2018-06-08T19:52:01.292Z,38.13
2018-06-08T19:55:04.223Z,35.93
2018-06-08T19:58:07.246Z,44.07
2018-06-08T20:01:10.169Z,39.37
2018-06-08T20:04:13.242Z,38.60
2018-06-08T20:07:16.168Z,36.63
2018-06-08T20:10:19.066Z,36.13
2018-06-08T20:13:21.986Z,37.60
2018-06-08T20:16:24.893Z,39.77
2018-06-08T20:19:27.777Z,41.67
2018-06-08T20:22:31.200Z,36.87
2018-06-08T20:25:34.448Z,38.73
2018-06-08T20:28:37.781Z,37.63
2018-06-08T20:31:40.723Z,42.80
2018-06-08T20:34:43.618Z,41.67
2018-06-08T20:37:46.836Z,35.20
2018-06-08T20:40:50.288Z,33.20
2018-06-08T20:43:53.181Z,31.90
2018-06-08T20:46:56.076Z,31.60
2018-06-08T20:49:59.014Z,40.90
2018-06-08T20:53:01.976Z,43.37
2018-06-08T20:56:04.961Z,53.00
2018-06-08T20:59:07.885Z,45.80
2018-06-08T21:02:10.893Z,42.47
2018-06-08T21:05:13.732Z,51.73
2018-06-08T21:08:16.614Z,52.80
2018-06-08T21:11:19.549Z,47.00
2018-06-08T21:14:22.448Z,45.47
2018-06-08T21:17:25.373Z,51.07
2018-06-08T21:20:28.344Z,51.40
2018-06-08T21:23:31.380Z,37.80
2018-06-08T21:26:34.351Z,45.30
2018-06-08T21:29:37.230Z,43.67
2018-06-08T21:32:40.110Z,48.73
2018-06-08T21:35:43.531Z,44.07
2018-06-08T21:38:46.777Z,52.80
2018-06-08T21:41:49.695Z,56.13
2018-06-08T21:44:52.725Z,42.90
2018-06-08T21:47:55.847Z,54.23
2018-06-08T21:50:58.765Z,47.53
2018-06-08T21:54:01.685Z,49.13
2018-06-08T21:57:04.717Z,44.17
2018-06-08T22:00:07.780Z,56.37
2018-06-08T22:03:10.807Z,46.93
2018-06-08T22:06:13.778Z,57.80
2018-06-08T22:09:18.072Z,57.43
2018-06-08T22:12:21.046Z,52.60
2018-06-08T22:15:23.973Z,46.97
2018-06-08T22:18:26.866Z,60.40
2018-06-08T22:21:29.810Z,48.90
2018-06-08T22:24:32.765Z,51.47
2018-06-08T22:27:35.692Z,45.07
2018-06-08T22:30:38.609Z,48.83
2018-06-08T22:33:41.551Z,53.23
2018-06-08T22:36:44.480Z,49.77
2018-06-08T22:39:47.378Z,51.20
2018-06-08T22:42:50.277Z,51.57
2018-06-08T22:45:53.185Z,50.47
2018-06-08T22:48:56.071Z,51.43
2018-06-08T22:51:59.001Z,48.87
2018-06-08T22:55:01.945Z,47.37
2018-06-08T22:58:04.899Z,54.70
2018-06-08T23:01:07.869Z,48.83
2018-06-08T23:04:10.821Z,51.70
2018-06-08T23:07:13.756Z,52.37
2018-06-08T23:10:16.672Z,55.07
2018-06-08T23:13:19.678Z,51.13
2018-06-08T23:16:22.826Z,47.53
2018-06-08T23:19:26.094Z,54.30
2018-06-08T23:22:29.369Z,49.17
2018-06-08T23:25:32.540Z,58.00
2018-06-08T23:28:35.455Z,56.60
2018-06-08T23:31:38.417Z,58.70
2018-06-08T23:34:41.359Z,53.10
2018-06-08T23:37:44.773Z,57.10
2018-06-08T23:40:47.676Z,52.63
2018-06-08T23:43:50.711Z,53.97
2018-06-08T23:46:53.582Z,49.83
2018-06-08T23:49:56.861Z,55.40
2018-06-08T23:52:59.804Z,49.60
2018-06-08T23:56:02.747Z,47.33
2018-06-08T23:59:05.723Z,53.83
